createdAt,value
2019-04-07T00:00:40.995Z,0.00
2019-04-07T00:01:40.261Z,0.00
2019-04-07T00:02:40.792Z,0.00
2019-04-07T00:03:40.232Z,0.00
2019-04-07T00:04:40.787Z,0.00
2019-04-07T00:05:40.227Z,0.00
2019-04-07T00:06:40.225Z,0.00
2019-04-07T00:07:40.250Z,0.00
2019-04-07T00:08:40.187Z,0.00
2019-04-07T00:09:40.163Z,0.00
2019-04-07T00:10:40.224Z,0.00
2019-04-07T00:11:40.172Z,0.00
2019-04-07T00:12:40.152Z,0.00
2019-04-07T00:13:40.121Z,0.00
2019-04-07T00:14:40.117Z,0.00
2019-04-07T00:15:40.097Z,0.00
2019-04-07T00:16:40.107Z,0.00
2019-04-07T00:17:40.114Z,0.00
2019-04-07T00:18:40.069Z,0.00
2019-04-07T00:19:40.251Z,0.00
2019-04-07T00:20:40.250Z,0.00
2019-04-07T00:21:40.039Z,0.00
2019-04-07T00:22:40.617Z,0.00
2019-04-07T00:23:40.040Z,0.00
2019-04-07T00:24:40.001Z,0.00
2019-04-07T00:25:39.995Z,0.00
2019-04-07T00:26:40.568Z,0.00
2019-04-07T00:27:40.438Z,0.00
2019-04-07T00:28:39.973Z,0.00
2019-04-07T00:29:39.971Z,0.00
2019-04-07T00:30:40.012Z,0.00
2019-04-07T00:31:39.920Z,0.00
2019-04-07T00:32:39.941Z,0.00
2019-04-07T00:33:40.194Z,0.00
2019-04-07T00:34:39.912Z,0.00
2019-04-07T00:35:39.901Z,0.00
2019-04-07T00:36:39.863Z,0.00
2019-04-07T00:37:39.855Z,0.00
2019-04-07T00:38:39.852Z,0.00
2019-04-07T00:39:39.850Z,0.00
2019-04-07T00:40:40.390Z,0.00
2019-04-07T00:41:40.315Z,0.00
2019-04-07T00:42:40.235Z,0.00
2019-04-07T00:43:39.788Z,0.00
2019-04-07T00:44:39.962Z,0.00
2019-04-07T00:45:40.512Z,0.00
2019-04-07T00:46:39.839Z,0.00
2019-04-07T00:47:40.192Z,0.00
2019-04-07T00:48:39.735Z,0.00
2019-04-07T00:49:40.159Z,0.00
2019-04-07T00:50:39.747Z,0.00
2019-04-07T00:51:39.729Z,0.00
2019-04-07T00:52:40.250Z,0.00
2019-04-07T00:53:39.683Z,0.00
2019-04-07T00:54:40.248Z,0.00
2019-04-07T00:55:39.715Z,0.00
2019-04-07T00:56:40.134Z,0.00
2019-04-07T00:57:39.646Z,0.00
2019-04-07T00:58:39.647Z,0.00
2019-04-07T00:59:39.736Z,0.00
2019-04-07T01:00:39.996Z,0.00
2019-04-07T01:01:39.914Z,0.00
2019-04-07T01:02:39.868Z,0.00
2019-04-07T01:03:40.264Z,0.00
2019-04-07T01:04:39.679Z,0.00
2019-04-07T01:05:41.723Z,0.00
2019-04-07T01:06:39.555Z,0.00
2019-04-07T01:07:39.887Z,0.00
2019-04-07T01:08:39.524Z,0.00
2019-04-07T01:09:39.911Z,0.00
2019-04-07T01:10:39.515Z,0.00
2019-04-07T01:11:39.640Z,0.00
2019-04-07T01:12:40.010Z,0.00
2019-04-07T01:13:40.091Z,0.00
2019-04-07T01:14:40.048Z,0.00
2019-04-07T01:15:39.605Z,0.00
2019-04-07T01:16:39.444Z,0.00
2019-04-07T01:17:39.413Z,0.00
2019-04-07T01:18:39.405Z,0.00
2019-04-07T01:19:39.826Z,0.00
2019-04-07T01:20:39.387Z,0.00
2019-04-07T01:21:39.393Z,0.00
2019-04-07T01:22:39.824Z,0.00
2019-04-07T01:23:39.351Z,0.00
2019-04-07T01:24:39.494Z,0.00
2019-04-07T01:25:39.546Z,0.00
2019-04-07T01:26:39.416Z,0.00
2019-04-07T01:27:39.321Z,0.00
2019-04-07T01:28:39.295Z,0.00
2019-04-07T01:29:39.950Z,0.00
2019-04-07T01:30:39.273Z,0.00
2019-04-07T01:31:39.552Z,0.00
2019-04-07T01:32:39.512Z,0.00
2019-04-07T01:33:40.037Z,0.00
2019-04-07T01:34:39.431Z,0.00
2019-04-07T01:35:46.247Z,0.00
2019-04-07T01:36:39.209Z,0.00
2019-04-07T01:37:39.583Z,0.00
2019-04-07T01:38:39.194Z,0.00
2019-04-07T01:39:39.486Z,0.00
2019-04-07T01:40:39.153Z,0.00
2019-04-07T01:41:39.163Z,0.00
2019-04-07T01:42:39.755Z,0.00
2019-04-07T01:43:39.394Z,0.00
2019-04-07T01:44:39.759Z,0.00
2019-04-07T01:45:39.220Z,0.00
2019-04-07T01:46:39.086Z,0.00
2019-04-07T01:47:39.634Z,0.00
2019-04-07T01:48:39.596Z,0.00
2019-04-07T01:49:39.070Z,0.00
2019-04-07T01:50:39.051Z,0.00
2019-04-07T01:51:39.074Z,0.00
2019-04-07T01:52:39.061Z,0.00
2019-04-07T01:53:39.312Z,0.00
2019-04-07T01:54:39.578Z,0.00
2019-04-07T01:55:39.014Z,0.00
2019-04-07T01:56:39.770Z,0.00
2019-04-07T01:57:38.962Z,0.00
2019-04-07T01:58:38.952Z,0.00
2019-04-07T01:59:39.266Z,0.00
2019-04-07T02:00:39.137Z,0.00
2019-04-07T02:01:38.954Z,0.00
2019-04-07T02:02:39.183Z,0.00
2019-04-07T02:03:38.901Z,0.00
2019-04-07T02:04:38.985Z,0.00
2019-04-07T02:05:39.217Z,0.00
2019-04-07T02:06:38.877Z,0.00
2019-04-07T02:07:39.101Z,0.00
2019-04-07T02:08:39.463Z,0.00
2019-04-07T02:09:39.151Z,0.00
2019-04-07T02:10:39.512Z,0.00
2019-04-07T02:11:38.810Z,0.00
2019-04-07T02:12:38.823Z,0.00
2019-04-07T02:13:39.284Z,0.00
2019-04-07T02:14:39.414Z,0.00
2019-04-07T02:15:39.375Z,0.00
2019-04-07T02:16:38.753Z,0.00
2019-04-07T02:17:38.825Z,0.00
2019-04-07T02:18:38.887Z,0.00
2019-04-07T02:19:39.538Z,0.00
2019-04-07T02:20:38.826Z,0.00
2019-04-07T02:21:39.169Z,0.00
2019-04-07T02:22:39.318Z,0.00
2019-04-07T02:23:39.303Z,0.00
2019-04-07T02:24:38.874Z,0.00
2019-04-07T02:25:38.682Z,0.00
2019-04-07T02:26:39.043Z,0.00
2019-04-07T02:27:38.640Z,0.00
2019-04-07T02:28:38.630Z,0.00
2019-04-07T02:29:38.837Z,0.00
2019-04-07T02:30:39.272Z,0.00
2019-04-07T02:31:38.587Z,0.00
2019-04-07T02:32:38.614Z,0.00
2019-04-07T02:33:39.417Z,0.00
2019-04-07T02:34:38.555Z,0.00
2019-04-07T02:35:38.555Z,0.00
2019-04-07T02:36:38.751Z,0.00
2019-04-07T02:37:38.773Z,0.00
2019-04-07T02:38:38.918Z,0.00
2019-04-07T02:39:38.819Z,0.00
2019-04-07T02:40:39.397Z,0.00
2019-04-07T02:41:38.494Z,0.00
2019-04-07T02:42:39.512Z,0.00
2019-04-07T02:43:38.606Z,0.00
2019-04-07T02:44:38.966Z,0.00
2019-04-07T02:45:38.447Z,0.00
2019-04-07T02:46:39.354Z,0.00
2019-04-07T02:47:39.283Z,0.00
2019-04-07T02:48:39.453Z,0.00
2019-04-07T02:49:39.302Z,0.00
2019-04-07T02:50:38.611Z,0.00
2019-04-07T02:51:38.468Z,0.00
2019-04-07T02:52:38.928Z,0.00
2019-04-07T02:53:39.169Z,0.00
2019-04-07T02:54:38.389Z,0.00
2019-04-07T02:55:38.333Z,0.00
2019-04-07T02:56:38.307Z,0.00
2019-04-07T02:57:38.314Z,0.00
2019-04-07T02:58:38.305Z,0.00
2019-04-07T02:59:41.441Z,0.00
2019-04-07T03:00:39.282Z,0.00
2019-04-07T03:01:38.306Z,0.00
2019-04-07T03:02:39.207Z,0.00
2019-04-07T03:03:39.195Z,0.00
2019-04-07T03:04:38.417Z,0.00
2019-04-07T03:05:38.437Z,0.00
2019-04-07T03:06:47.310Z,0.00
2019-04-07T03:07:39.088Z,0.00
2019-04-07T03:08:38.188Z,0.00
2019-04-07T03:09:38.187Z,0.00
2019-04-07T03:10:38.560Z,0.00
2019-04-07T03:11:38.155Z,0.00
2019-04-07T03:12:38.216Z,0.00
2019-04-07T03:13:38.198Z,0.00
2019-04-07T03:14:39.156Z,0.00
2019-04-07T03:15:38.823Z,0.00
2019-04-07T03:16:38.104Z,0.00
2019-04-07T03:17:38.128Z,0.00
2019-04-07T03:18:38.993Z,0.00
2019-04-07T03:19:38.058Z,0.00
2019-04-07T03:20:39.136Z,0.00
2019-04-07T03:21:38.282Z,0.00
2019-04-07T03:22:38.466Z,0.00
2019-04-07T03:23:38.381Z,0.00
2019-04-07T03:24:38.035Z,0.00
2019-04-07T03:25:38.647Z,0.00
2019-04-07T03:26:37.974Z,0.00
2019-04-07T03:27:38.245Z,0.00
2019-04-07T03:28:37.976Z,0.00
2019-04-07T03:29:38.399Z,0.00
2019-04-07T03:30:40.284Z,0.00
2019-04-07T03:31:38.894Z,0.00
2019-04-07T03:32:40.294Z,0.00
2019-04-07T03:33:40.620Z,0.00
2019-04-07T03:34:40.134Z,0.00
2019-04-07T03:35:40.287Z,0.00
2019-04-07T03:37:09.650Z,0.00
2019-04-07T03:37:44.001Z,0.00
2019-04-07T03:38:39.183Z,0.00
2019-04-07T03:39:38.232Z,0.00
2019-04-07T03:40:37.979Z,0.00
2019-04-07T03:41:38.591Z,0.00
2019-04-07T03:42:38.470Z,0.00
2019-04-07T03:43:38.006Z,0.00
2019-04-07T03:44:37.794Z,0.00
2019-04-07T03:45:37.961Z,0.00
2019-04-07T03:46:38.817Z,0.00
2019-04-07T03:47:37.753Z,0.00
2019-04-07T03:48:38.018Z,0.00
2019-04-07T03:49:38.073Z,0.00
2019-04-07T03:50:38.663Z,0.00
2019-04-07T03:51:37.892Z,0.00
2019-04-07T03:52:37.683Z,0.00
2019-04-07T03:53:37.690Z,0.00
2019-04-07T03:54:37.891Z,0.00
2019-04-07T03:55:38.482Z,0.00
2019-04-07T03:56:37.645Z,0.00
2019-04-07T03:57:37.643Z,0.00
2019-04-07T03:58:37.767Z,0.00
2019-04-07T03:59:38.381Z,0.00
2019-04-07T04:00:37.619Z,0.00
2019-04-07T04:01:37.587Z,0.00
2019-04-07T04:02:37.954Z,0.00
2019-04-07T04:03:38.591Z,0.00
2019-04-07T04:04:37.558Z,0.00
2019-04-07T04:05:37.537Z,0.00
2019-04-07T04:06:37.612Z,0.00
2019-04-07T04:07:38.702Z,0.00
2019-04-07T04:08:38.302Z,0.00
2019-04-07T04:09:40.573Z,0.00
2019-04-07T04:10:38.452Z,0.00
2019-04-07T04:11:37.668Z,0.00
2019-04-07T04:12:37.837Z,0.00
2019-04-07T04:13:37.956Z,0.00
2019-04-07T04:14:37.725Z,0.00
2019-04-07T04:15:38.048Z,0.00
2019-04-07T04:16:37.426Z,0.00
2019-04-07T04:17:37.408Z,0.00
2019-04-07T04:18:37.640Z,0.00
2019-04-07T04:19:37.433Z,0.00
2019-04-07T04:20:37.412Z,0.00
2019-04-07T04:21:37.991Z,0.00
2019-04-07T04:22:37.944Z,0.00
2019-04-07T04:23:40.046Z,0.00
2019-04-07T04:24:38.121Z,0.00
2019-04-07T04:25:37.606Z,0.00
2019-04-07T04:26:37.952Z,0.00
2019-04-07T04:27:37.295Z,0.00
2019-04-07T04:28:37.287Z,0.00
2019-04-07T04:29:37.452Z,0.00
2019-04-07T04:30:37.297Z,0.00
2019-04-07T04:31:37.276Z,0.00
2019-04-07T04:32:37.257Z,0.00
2019-04-07T04:33:37.736Z,0.00
2019-04-07T04:34:37.236Z,0.00
2019-04-07T04:35:37.512Z,0.00
2019-04-07T04:36:38.053Z,0.00
2019-04-07T04:37:44.195Z,0.00
2019-04-07T04:38:37.204Z,0.00
2019-04-07T04:39:37.559Z,0.00
2019-04-07T04:40:37.549Z,0.00
2019-04-07T04:41:37.149Z,0.00
2019-04-07T04:42:37.577Z,0.00
2019-04-07T04:43:38.031Z,0.00
2019-04-07T04:44:37.929Z,0.00
2019-04-07T04:45:37.096Z,0.00
2019-04-07T04:46:37.080Z,0.00
2019-04-07T04:47:37.666Z,0.00
2019-04-07T04:48:37.067Z,0.00
2019-04-07T04:49:37.244Z,0.00
2019-04-07T04:50:37.354Z,0.00
2019-04-07T04:51:39.546Z,0.00
2019-04-07T04:52:37.017Z,0.00
2019-04-07T04:53:38.062Z,5.62
2019-04-07T04:54:37.006Z,5.62
2019-04-07T04:55:37.328Z,5.62
2019-04-07T04:56:37.352Z,5.62
2019-04-07T04:57:36.955Z,5.62
2019-04-07T04:58:36.948Z,5.62
2019-04-07T04:59:36.945Z,5.62
2019-04-07T05:00:36.935Z,5.62
2019-04-07T05:01:37.806Z,5.62
2019-04-07T05:02:36.915Z,5.62
2019-04-07T05:03:36.894Z,5.62
2019-04-07T05:04:37.427Z,5.62
2019-04-07T05:05:36.893Z,5.62
2019-04-07T05:06:36.991Z,5.62
2019-04-07T05:07:48.840Z,5.62
2019-04-07T05:08:36.858Z,5.62
2019-04-07T05:09:44.341Z,5.62
2019-04-07T05:10:37.175Z,11.25
2019-04-07T05:11:37.095Z,11.25
2019-04-07T05:12:37.014Z,11.25
2019-04-07T05:13:37.319Z,11.25
2019-04-07T05:14:36.771Z,11.25
2019-04-07T05:15:36.779Z,11.25
2019-04-07T05:16:37.273Z,11.25
2019-04-07T05:17:36.974Z,11.25
2019-04-07T05:18:37.151Z,11.25
2019-04-07T05:19:37.285Z,11.25
2019-04-07T05:20:36.715Z,11.25
2019-04-07T05:21:36.698Z,11.25
2019-04-07T05:22:36.873Z,11.25
2019-04-07T05:23:36.680Z,11.25
2019-04-07T05:24:36.725Z,11.25
2019-04-07T05:25:36.955Z,11.25
2019-04-07T05:26:36.637Z,11.25
2019-04-07T05:27:36.620Z,11.25
2019-04-07T05:28:37.301Z,11.25
2019-04-07T05:29:36.695Z,11.25
2019-04-07T05:30:36.615Z,16.88
2019-04-07T05:31:37.036Z,16.88
2019-04-07T05:32:36.799Z,16.88
2019-04-07T05:33:36.748Z,16.88
2019-04-07T05:34:36.735Z,16.88
2019-04-07T05:35:37.857Z,16.88
2019-04-07T05:36:36.946Z,16.88
2019-04-07T05:37:36.513Z,16.88
2019-04-07T05:38:36.698Z,16.88
2019-04-07T05:39:37.193Z,16.88
2019-04-07T05:40:36.682Z,16.88
2019-04-07T05:41:36.488Z,16.88
2019-04-07T05:42:36.453Z,16.88
2019-04-07T05:43:36.957Z,16.88
2019-04-07T05:44:37.178Z,22.50
2019-04-07T05:45:37.639Z,22.50
2019-04-07T05:46:40.130Z,22.50
2019-04-07T05:47:37.517Z,22.50
2019-04-07T05:48:37.064Z,22.50
2019-04-07T05:49:36.420Z,22.50
2019-04-07T05:50:36.368Z,22.50
2019-04-07T05:51:37.009Z,22.50
2019-04-07T05:52:39.524Z,28.12
2019-04-07T05:53:36.360Z,28.12
2019-04-07T05:54:36.335Z,28.12
2019-04-07T05:55:36.310Z,28.12
2019-04-07T05:56:36.897Z,28.12
2019-04-07T05:57:36.299Z,28.12
2019-04-07T05:58:38.601Z,28.12
2019-04-07T05:59:36.517Z,33.75
2019-04-07T06:00:36.257Z,33.75
2019-04-07T06:01:36.715Z,39.38
2019-04-07T06:02:36.384Z,39.38
2019-04-07T06:03:41.224Z,33.75
2019-04-07T06:04:36.228Z,39.38
2019-04-07T06:05:36.877Z,39.38
2019-04-07T06:06:37.044Z,39.38
2019-04-07T06:07:37.096Z,39.38
2019-04-07T06:08:39.225Z,33.75
2019-04-07T06:09:36.252Z,33.75
2019-04-07T06:10:36.987Z,33.75
2019-04-07T06:11:36.252Z,33.75
2019-04-07T06:12:39.353Z,33.75
2019-04-07T06:13:36.113Z,33.75
2019-04-07T06:14:36.768Z,33.75
2019-04-07T06:15:36.105Z,33.75
2019-04-07T06:16:36.095Z,33.75
2019-04-07T06:17:36.706Z,33.75
2019-04-07T06:18:36.781Z,33.75
2019-04-07T06:19:40.545Z,33.75
2019-04-07T06:20:36.069Z,33.75
2019-04-07T06:21:36.628Z,33.75
2019-04-07T06:22:36.034Z,33.75
2019-04-07T06:23:36.415Z,33.75
2019-04-07T06:24:36.076Z,33.75
2019-04-07T06:25:39.918Z,33.75
2019-04-07T06:26:37.127Z,33.75
2019-04-07T06:27:35.973Z,39.38
2019-04-07T06:28:35.940Z,39.38
2019-04-07T06:29:36.563Z,39.38
2019-04-07T06:30:36.886Z,39.38
2019-04-07T06:31:35.917Z,39.38
2019-04-07T06:32:37.551Z,39.38
2019-04-07T06:33:38.119Z,39.38
2019-04-07T06:34:39.874Z,39.38
2019-04-07T06:35:36.527Z,39.38
2019-04-07T06:36:35.852Z,39.38
2019-04-07T06:37:36.342Z,39.38
2019-04-07T06:38:41.183Z,39.38
2019-04-07T06:39:36.165Z,39.38
2019-04-07T06:40:35.808Z,39.38
2019-04-07T06:41:35.800Z,39.38
2019-04-07T06:42:36.475Z,39.38
2019-04-07T06:43:38.201Z,39.38
2019-04-07T06:44:35.776Z,39.38
2019-04-07T06:45:36.130Z,45.00
2019-04-07T06:46:35.771Z,45.00
2019-04-07T06:47:37.006Z,39.38
2019-04-07T06:48:38.051Z,39.38
2019-04-07T06:49:35.713Z,45.00
2019-04-07T06:50:45.465Z,45.00
2019-04-07T06:51:35.702Z,45.00
2019-04-07T06:52:39.819Z,45.00
2019-04-07T06:53:35.683Z,45.00
2019-04-07T06:54:35.655Z,45.00
2019-04-07T06:55:36.249Z,45.00
2019-04-07T06:56:35.652Z,45.00
2019-04-07T06:57:37.426Z,45.00
2019-04-07T06:58:38.817Z,45.00
2019-04-07T06:59:35.599Z,45.00
2019-04-07T07:00:35.814Z,45.00
2019-04-07T07:01:35.594Z,45.00
2019-04-07T07:02:35.844Z,45.00
2019-04-07T07:03:38.098Z,45.00
2019-04-07T07:04:35.607Z,45.00
2019-04-07T07:05:36.234Z,45.00
2019-04-07T07:06:35.628Z,45.00
2019-04-07T07:07:35.735Z,45.00
2019-04-07T07:08:44.507Z,45.00
2019-04-07T07:09:35.966Z,45.00
2019-04-07T07:10:38.850Z,45.00
2019-04-07T07:11:40.377Z,45.00
2019-04-07T07:12:38.783Z,45.00
2019-04-07T07:13:36.697Z,45.00
2019-04-07T07:14:42.637Z,50.62
2019-04-07T07:15:36.447Z,50.62
2019-04-07T07:16:36.132Z,56.25
2019-04-07T07:17:35.564Z,56.25
2019-04-07T07:18:35.771Z,56.25
2019-04-07T07:19:35.395Z,61.88
2019-04-07T07:20:36.120Z,61.88
2019-04-07T07:21:38.727Z,61.88
2019-04-07T07:22:35.734Z,61.88
2019-04-07T07:23:35.330Z,61.88
2019-04-07T07:24:35.894Z,61.88
2019-04-07T07:25:35.317Z,61.88
2019-04-07T07:26:35.541Z,61.88
2019-04-07T07:27:38.907Z,61.88
2019-04-07T07:28:36.024Z,56.25
2019-04-07T07:29:35.325Z,56.25
2019-04-07T07:30:35.850Z,56.25
2019-04-07T07:31:35.783Z,56.25
2019-04-07T07:32:37.269Z,56.25
2019-04-07T07:33:38.364Z,56.25
2019-04-07T07:34:35.852Z,56.25
2019-04-07T07:35:35.226Z,50.62
2019-04-07T07:36:35.226Z,50.62
2019-04-07T07:37:35.364Z,50.62
2019-04-07T07:38:35.195Z,50.62
2019-04-07T07:39:35.159Z,50.62
2019-04-07T07:40:35.257Z,50.62
2019-04-07T07:41:35.621Z,45.00
2019-04-07T07:42:35.551Z,50.62
2019-04-07T07:43:35.208Z,50.62
2019-04-07T07:44:37.888Z,50.62
2019-04-07T07:45:35.089Z,50.62
2019-04-07T07:46:35.075Z,50.62
2019-04-07T07:47:35.071Z,50.62
2019-04-07T07:48:35.667Z,50.62
2019-04-07T07:49:39.851Z,50.62
2019-04-07T07:50:38.056Z,50.62
2019-04-07T07:51:37.713Z,50.62
2019-04-07T07:52:35.135Z,50.62
2019-04-07T07:53:35.034Z,50.62
2019-04-07T07:54:35.232Z,50.62
2019-04-07T07:55:37.581Z,50.62
2019-04-07T07:56:35.776Z,50.62
2019-04-07T07:57:35.551Z,50.62
2019-04-07T07:58:35.547Z,56.25
2019-04-07T07:59:38.975Z,50.62
2019-04-07T08:00:39.996Z,50.62
2019-04-07T08:01:34.935Z,56.25
2019-04-07T08:02:35.323Z,56.25
2019-04-07T08:03:35.186Z,56.25
2019-04-07T08:04:35.523Z,56.25
2019-04-07T08:05:34.902Z,56.25
2019-04-07T08:06:38.494Z,56.25
2019-04-07T08:07:34.873Z,56.25
2019-04-07T08:08:35.244Z,56.25
2019-04-07T08:09:34.819Z,56.25
2019-04-07T08:10:35.122Z,56.25
2019-04-07T08:11:35.540Z,56.25
2019-04-07T08:12:35.797Z,56.25
2019-04-07T08:13:41.222Z,56.25
2019-04-07T08:14:35.979Z,50.62
2019-04-07T08:15:34.758Z,50.62
2019-04-07T08:16:34.758Z,50.62
2019-04-07T08:17:35.569Z,50.62
2019-04-07T08:18:37.165Z,50.62
2019-04-07T08:19:34.708Z,50.62
2019-04-07T08:20:35.002Z,56.25
2019-04-07T08:21:34.715Z,56.25
2019-04-07T08:22:40.582Z,56.25
2019-04-07T08:23:35.161Z,56.25
2019-04-07T08:24:35.132Z,61.88
2019-04-07T08:25:34.716Z,61.88
2019-04-07T08:26:35.137Z,61.88
2019-04-07T08:27:34.804Z,61.88
2019-04-07T08:28:35.868Z,67.50
2019-04-07T08:29:37.089Z,61.88
2019-04-07T08:30:34.602Z,67.50
2019-04-07T08:31:34.895Z,67.50
2019-04-07T08:32:34.574Z,67.50
2019-04-07T08:33:35.455Z,67.50
2019-04-07T08:34:34.911Z,67.50
2019-04-07T08:35:38.186Z,67.50
2019-04-07T08:36:34.784Z,67.50
2019-04-07T08:37:35.201Z,67.50
2019-04-07T08:38:34.529Z,67.50
2019-04-07T08:39:35.439Z,67.50
2019-04-07T08:40:36.486Z,61.88
2019-04-07T08:41:34.489Z,61.88
2019-04-07T08:42:34.486Z,61.88
2019-04-07T08:43:35.126Z,61.88
2019-04-07T08:44:34.512Z,61.88
2019-04-07T08:45:35.029Z,61.88
2019-04-07T08:46:38.620Z,61.88
2019-04-07T08:47:34.552Z,61.88
2019-04-07T08:48:34.386Z,61.88
2019-04-07T08:49:35.391Z,61.88
2019-04-07T08:50:35.023Z,61.88
2019-04-07T08:51:35.077Z,61.88
2019-04-07T08:52:34.423Z,61.88
2019-04-07T08:53:34.357Z,61.88
2019-04-07T08:54:34.325Z,61.88
2019-04-07T08:55:34.550Z,61.88
2019-04-07T08:56:34.302Z,61.88
2019-04-07T08:57:34.681Z,61.88
2019-04-07T08:58:38.426Z,61.88
2019-04-07T08:59:34.280Z,61.88
2019-04-07T09:00:34.293Z,61.88
2019-04-07T09:01:34.882Z,61.88
2019-04-07T09:02:34.701Z,67.50
2019-04-07T09:03:34.704Z,73.12
2019-04-07T09:04:34.453Z,78.75
2019-04-07T09:05:34.217Z,78.75
2019-04-07T09:06:34.195Z,84.38
2019-04-07T09:07:34.975Z,84.38
2019-04-07T09:08:36.123Z,90.00
2019-04-07T09:09:36.961Z,90.00
2019-04-07T09:10:34.788Z,90.00
2019-04-07T09:11:34.601Z,90.00
2019-04-07T09:12:34.954Z,90.00
2019-04-07T09:13:34.407Z,90.00
2019-04-07T09:14:37.273Z,90.00
2019-04-07T09:15:34.883Z,90.00
2019-04-07T09:16:34.383Z,90.00
2019-04-07T09:17:41.042Z,90.00
2019-04-07T09:18:34.058Z,90.00
2019-04-07T09:19:35.753Z,90.00
2019-04-07T09:20:34.656Z,90.00
2019-04-07T09:21:39.854Z,90.00
2019-04-07T09:22:34.707Z,84.38
2019-04-07T09:23:34.420Z,84.38
2019-04-07T09:24:33.987Z,95.62
2019-04-07T09:25:35.833Z,90.00
2019-04-07T09:26:34.361Z,90.00
2019-04-07T09:27:34.079Z,90.00
2019-04-07T09:28:34.276Z,84.38
2019-04-07T09:29:33.959Z,78.75
2019-04-07T09:30:33.920Z,78.75
2019-04-07T09:31:33.922Z,73.12
2019-04-07T09:32:34.462Z,73.12
2019-04-07T09:33:35.888Z,67.50
2019-04-07T09:34:34.534Z,67.50
2019-04-07T09:35:33.873Z,67.50
2019-04-07T09:36:33.860Z,67.50
2019-04-07T09:37:33.846Z,67.50
2019-04-07T09:38:33.844Z,73.12
2019-04-07T09:39:50.718Z,73.12
2019-04-07T09:40:34.007Z,73.12
2019-04-07T09:41:33.812Z,78.75
2019-04-07T09:42:33.788Z,78.75
2019-04-07T09:43:33.789Z,73.12
2019-04-07T09:44:36.584Z,73.12
2019-04-07T09:45:34.532Z,78.75
2019-04-07T09:46:33.782Z,78.75
2019-04-07T09:47:33.738Z,78.75
2019-04-07T09:48:33.720Z,78.75
2019-04-07T09:49:33.712Z,84.38
2019-04-07T09:50:33.721Z,84.38
2019-04-07T09:51:37.609Z,84.38
2019-04-07T09:52:33.928Z,84.38
2019-04-07T09:53:33.824Z,84.38
2019-04-07T09:54:33.652Z,84.38
2019-04-07T09:55:33.646Z,90.00
2019-04-07T09:56:33.797Z,95.62
2019-04-07T09:57:37.505Z,101.25
2019-04-07T09:58:35.046Z,106.88
2019-04-07T09:59:33.903Z,106.88
2019-04-07T10:00:33.911Z,106.88
2019-04-07T10:01:34.135Z,101.25
2019-04-07T10:02:35.523Z,106.88
2019-04-07T10:03:35.486Z,112.50
2019-04-07T10:04:37.914Z,112.50
2019-04-07T10:05:33.534Z,118.12
2019-04-07T10:06:33.524Z,118.12
2019-04-07T10:07:33.539Z,123.75
2019-04-07T10:08:33.512Z,118.12
2019-04-07T10:09:33.613Z,118.12
2019-04-07T10:10:35.002Z,118.12
2019-04-07T10:11:33.878Z,118.12
2019-04-07T10:12:33.551Z,118.12
2019-04-07T10:13:34.121Z,118.12
2019-04-07T10:14:33.449Z,112.50
2019-04-07T10:15:33.804Z,106.88
2019-04-07T10:16:35.054Z,106.88
2019-04-07T10:17:34.044Z,101.25
2019-04-07T10:18:34.046Z,95.62
2019-04-07T10:19:33.390Z,95.62
2019-04-07T10:20:33.653Z,90.00
2019-04-07T10:21:33.354Z,90.00
2019-04-07T10:22:34.072Z,84.38
2019-04-07T10:23:33.340Z,90.00
2019-04-07T10:24:33.317Z,90.00
2019-04-07T10:25:33.316Z,95.62
2019-04-07T10:26:33.716Z,101.25
2019-04-07T10:27:33.941Z,101.25
2019-04-07T10:28:33.463Z,101.25
2019-04-07T10:29:34.053Z,101.25
2019-04-07T10:30:33.265Z,106.88
2019-04-07T10:31:33.721Z,101.25
2019-04-07T10:32:33.961Z,101.25
2019-04-07T10:33:33.469Z,106.88
2019-04-07T10:34:33.207Z,101.25
2019-04-07T10:35:33.530Z,101.25
2019-04-07T10:36:33.341Z,95.62
2019-04-07T10:37:33.534Z,90.00
2019-04-07T10:38:33.200Z,95.62
2019-04-07T10:39:33.718Z,112.50
2019-04-07T10:40:33.462Z,106.88
2019-04-07T10:41:33.123Z,106.88
2019-04-07T10:42:33.548Z,112.50
2019-04-07T10:43:33.860Z,118.12
2019-04-07T10:44:34.095Z,118.12
2019-04-07T10:45:33.077Z,118.12
2019-04-07T10:46:33.659Z,112.50
2019-04-07T10:47:33.610Z,106.88
2019-04-07T10:48:33.264Z,106.88
2019-04-07T10:49:33.050Z,101.25
2019-04-07T10:50:33.658Z,101.25
2019-04-07T10:51:33.007Z,95.62
2019-04-07T10:52:33.875Z,90.00
2019-04-07T10:53:34.247Z,95.62
2019-04-07T10:54:33.662Z,95.62
2019-04-07T10:55:33.042Z,95.62
2019-04-07T10:56:32.959Z,90.00
2019-04-07T10:57:33.427Z,84.38
2019-04-07T10:58:33.279Z,78.75
2019-04-07T10:59:32.941Z,78.75
2019-04-07T11:00:33.436Z,90.00
2019-04-07T11:01:33.363Z,90.00
2019-04-07T11:02:32.889Z,84.38
2019-04-07T11:03:33.012Z,84.38
2019-04-07T11:04:32.862Z,90.00
2019-04-07T11:05:32.874Z,95.62
2019-04-07T11:06:33.826Z,101.25
2019-04-07T11:07:32.841Z,106.88
2019-04-07T11:08:33.087Z,112.50
2019-04-07T11:09:32.809Z,106.88
2019-04-07T11:10:37.815Z,106.88
2019-04-07T11:11:33.929Z,118.12
2019-04-07T11:12:32.881Z,123.75
2019-04-07T11:13:32.761Z,123.75
2019-04-07T11:14:33.071Z,123.75
2019-04-07T11:15:33.032Z,123.75
2019-04-07T11:16:32.893Z,123.75
2019-04-07T11:17:32.751Z,123.75
2019-04-07T11:18:32.755Z,118.12
2019-04-07T11:19:33.381Z,118.12
2019-04-07T11:20:32.683Z,112.50
2019-04-07T11:21:32.689Z,118.12
2019-04-07T11:22:33.778Z,118.12
2019-04-07T11:23:32.663Z,112.50
2019-04-07T11:24:32.663Z,112.50
2019-04-07T11:25:32.737Z,118.12
2019-04-07T11:26:32.634Z,112.50
2019-04-07T11:27:33.000Z,112.50
2019-04-07T11:28:32.617Z,118.12
2019-04-07T11:29:32.674Z,123.75
2019-04-07T11:30:33.297Z,123.75
2019-04-07T11:31:32.558Z,123.75
2019-04-07T11:32:32.551Z,123.75
2019-04-07T11:33:32.849Z,129.38
2019-04-07T11:34:33.135Z,129.38
2019-04-07T11:35:32.544Z,129.38
2019-04-07T11:36:32.516Z,129.38
2019-04-07T11:37:32.841Z,123.75
2019-04-07T11:38:32.500Z,123.75
2019-04-07T11:39:32.698Z,118.12
2019-04-07T11:40:41.931Z,118.12
2019-04-07T11:41:33.458Z,118.12
2019-04-07T11:42:33.329Z,118.12
2019-04-07T11:43:32.666Z,118.12
2019-04-07T11:44:32.431Z,118.12
2019-04-07T11:45:32.419Z,118.12
2019-04-07T11:46:33.001Z,118.12
2019-04-07T11:47:32.903Z,112.50
2019-04-07T11:48:33.170Z,118.12
2019-04-07T11:49:32.366Z,123.75
2019-04-07T11:50:32.713Z,118.12
2019-04-07T11:51:32.566Z,112.50
2019-04-07T11:52:33.309Z,112.50
2019-04-07T11:53:33.122Z,112.50
2019-04-07T11:54:32.720Z,118.12
2019-04-07T11:55:33.319Z,118.12
2019-04-07T11:56:32.294Z,112.50
2019-04-07T11:57:32.278Z,118.12
2019-04-07T11:58:34.474Z,112.50
2019-04-07T11:59:32.964Z,106.88
2019-04-07T12:00:32.232Z,106.88
2019-04-07T12:01:32.835Z,101.25
2019-04-07T12:02:33.071Z,101.25
2019-04-07T12:03:32.239Z,95.62
2019-04-07T12:04:32.718Z,90.00
2019-04-07T12:05:32.276Z,84.38
2019-04-07T12:06:32.170Z,84.38
2019-04-07T12:07:32.446Z,78.75
2019-04-07T12:08:36.048Z,78.75
2019-04-07T12:09:32.155Z,78.75
2019-04-07T12:10:32.152Z,84.38
2019-04-07T12:11:32.789Z,84.38
2019-04-07T12:12:32.098Z,84.38
2019-04-07T12:13:32.940Z,78.75
2019-04-07T12:14:32.109Z,73.12
2019-04-07T12:15:32.322Z,73.12
2019-04-07T12:16:32.091Z,73.12
2019-04-07T12:17:32.048Z,73.12
2019-04-07T12:18:32.819Z,73.12
2019-04-07T12:19:32.198Z,78.75
2019-04-07T12:20:33.777Z,84.38
2019-04-07T12:21:35.417Z,90.00
2019-04-07T12:22:32.665Z,90.00
2019-04-07T12:23:32.728Z,90.00
2019-04-07T12:24:32.545Z,90.00
2019-04-07T12:25:33.343Z,84.38
2019-04-07T12:26:34.652Z,78.75
2019-04-07T12:27:31.956Z,78.75
2019-04-07T12:28:31.973Z,84.38
2019-04-07T12:29:31.922Z,84.38
2019-04-07T12:30:32.650Z,90.00
2019-04-07T12:31:31.893Z,84.38
2019-04-07T12:32:32.494Z,78.75
2019-04-07T12:33:32.805Z,78.75
2019-04-07T12:34:32.185Z,84.38
2019-04-07T12:35:32.994Z,90.00
2019-04-07T12:36:32.176Z,90.00
2019-04-07T12:37:32.930Z,90.00
2019-04-07T12:38:31.919Z,84.38
2019-04-07T12:39:34.165Z,78.75
2019-04-07T12:40:32.297Z,73.12
2019-04-07T12:41:32.216Z,67.50
2019-04-07T12:42:31.764Z,67.50
2019-04-07T12:43:31.765Z,73.12
2019-04-07T12:44:31.760Z,73.12
2019-04-07T12:45:31.945Z,73.12
2019-04-07T12:46:31.769Z,73.12
2019-04-07T12:47:32.046Z,73.12
2019-04-07T12:48:32.098Z,73.12
2019-04-07T12:49:33.363Z,73.12
2019-04-07T12:50:31.714Z,73.12
2019-04-07T12:51:31.876Z,78.75
2019-04-07T12:52:32.551Z,78.75
2019-04-07T12:53:34.326Z,73.12
2019-04-07T12:54:32.004Z,73.12
2019-04-07T12:55:32.394Z,67.50
2019-04-07T12:56:34.166Z,61.88
2019-04-07T12:57:35.349Z,56.25
2019-04-07T12:58:32.417Z,50.62
2019-04-07T12:59:31.576Z,50.62